sensor_id;sensor_type;location;lat;lon;timestamp;P1;durP1;ratioP1;P2;durP2;ratioP2
47353;SDS011;50657;48.830;2.282;2022-12-10T00:02:15;6.18;;;4.75;;
47353;SDS011;50657;48.830;2.282;2022-12-10T00:04:42;8.20;;;5.03;;
47353;SDS011;50657;48.830;2.282;2022-12-10T00:07:09;6.75;;;5.32;;
47353;SDS011;50657;48.830;2.282;2022-12-10T00:09:38;6.68;;;5.68;;
47353;SDS011;50657;48.830;2.282;2022-12-10T00:12:05;7.18;;;6.03;;
47353;SDS011;50657;48.830;2.282;2022-12-10T00:14:32;7.15;;;4.25;;
47353;SDS011;50657;48.830;2.282;2022-12-10T00:16:59;5.55;;;4.75;;
47353;SDS011;50657;48.830;2.282;2022-12-10T00:19:26;4.95;;;4.38;;
47353;SDS011;50657;48.830;2.282;2022-12-10T00:21:53;5.35;;;4.85;;
47353;SDS011;50657;48.830;2.282;2022-12-10T00:24:20;5.05;;;4.55;;
47353;SDS011;50657;48.830;2.282;2022-12-10T00:26:48;4.88;;;4.18;;
47353;SDS011;50657;48.830;2.282;2022-12-10T00:29:15;6.28;;;4.53;;
47353;SDS011;50657;48.830;2.282;2022-12-10T00:31:42;6.88;;;4.35;;
47353;SDS011;50657;48.830;2.282;2022-12-10T00:34:11;4.13;;;3.80;;
47353;SDS011;50657;48.830;2.282;2022-12-10T00:36:39;7.00;;;5.13;;
47353;SDS011;50657;48.830;2.282;2022-12-10T00:39:08;4.50;;;4.10;;
47353;SDS011;50657;48.830;2.282;2022-12-10T00:41:38;4.78;;;4.28;;
47353;SDS011;50657;48.830;2.282;2022-12-10T00:44:06;5.22;;;4.70;;
47353;SDS011;50657;48.830;2.282;2022-12-10T00:46:34;4.78;;;4.32;;
47353;SDS011;50657;48.830;2.282;2022-12-10T00:49:01;5.90;;;4.07;;
47353;SDS011;50657;48.830;2.282;2022-12-10T00:51:29;5.85;;;4.93;;
47353;SDS011;50657;48.830;2.282;2022-12-10T00:53:56;4.93;;;3.72;;
47353;SDS011;50657;48.830;2.282;2022-12-10T00:56:25;7.18;;;4.40;;
47353;SDS011;50657;48.830;2.282;2022-12-10T00:58:55;6.90;;;4.70;;
47353;SDS011;50657;48.830;2.282;2022-12-10T01:01:24;5.00;;;4.53;;
47353;SDS011;50657;48.830;2.282;2022-12-10T01:03:53;7.28;;;4.72;;
47353;SDS011;50657;48.830;2.282;2022-12-10T01:06:23;5.07;;;3.97;;
47353;SDS011;50657;48.830;2.282;2022-12-10T01:08:52;5.07;;;4.68;;
47353;SDS011;50657;48.830;2.282;2022-12-10T01:11:22;5.20;;;4.47;;
47353;SDS011;50657;48.830;2.282;2022-12-10T01:13:52;7.68;;;4.55;;
47353;SDS011;50657;48.830;2.282;2022-12-10T01:16:20;6.30;;;4.80;;
47353;SDS011;50657;48.830;2.282;2022-12-10T01:18:51;5.72;;;4.28;;
47353;SDS011;50657;48.830;2.282;2022-12-10T01:21:19;4.03;;;3.60;;
47353;SDS011;50657;48.830;2.282;2022-12-10T01:23:48;8.45;;;4.47;;
47353;SDS011;50657;48.830;2.282;2022-12-10T01:26:19;4.65;;;3.78;;
47353;SDS011;50657;48.830;2.282;2022-12-10T01:28:47;5.30;;;4.38;;
47353;SDS011;50657;48.830;2.282;2022-12-10T01:31:16;4.13;;;3.58;;
47353;SDS011;50657;48.830;2.282;2022-12-10T01:33:45;6.97;;;4.63;;
47353;SDS011;50657;48.830;2.282;2022-12-10T01:36:17;5.95;;;4.05;;
47353;SDS011;50657;48.830;2.282;2022-12-10T01:38:45;5.15;;;4.75;;
47353;SDS011;50657;48.830;2.282;2022-12-10T01:41:13;6.93;;;4.90;;
47353;SDS011;50657;48.830;2.282;2022-12-10T01:43:49;4.78;;;4.38;;
47353;SDS011;50657;48.830;2.282;2022-12-10T01:46:18;6.53;;;4.10;;
47353;SDS011;50657;48.830;2.282;2022-12-10T01:48:45;8.70;;;5.55;;
47353;SDS011;50657;48.830;2.282;2022-12-10T01:51:14;3.97;;;3.58;;
47353;SDS011;50657;48.830;2.282;2022-12-10T01:53:42;7.78;;;4.05;;
47353;SDS011;50657;48.830;2.282;2022-12-10T01:56:10;6.75;;;5.85;;
47353;SDS011;50657;48.830;2.282;2022-12-10T01:58:38;6.53;;;5.10;;
47353;SDS011;50657;48.830;2.282;2022-12-10T02:01:07;4.75;;;4.20;;
47353;SDS011;50657;48.830;2.282;2022-12-10T02:03:38;4.90;;;4.07;;
47353;SDS011;50657;48.830;2.282;2022-12-10T02:06:22;4.00;;;3.47;;
47353;SDS011;50657;48.830;2.282;2022-12-10T02:09:02;3.95;;;3.55;;
47353;SDS011;50657;48.830;2.282;2022-12-10T02:11:40;4.25;;;3.38;;
47353;SDS011;50657;48.830;2.282;2022-12-10T02:14:15;3.90;;;3.55;;
47353;SDS011;50657;48.830;2.282;2022-12-10T02:16:47;6.13;;;4.50;;
47353;SDS011;50657;48.830;2.282;2022-12-10T02:19:26;3.85;;;3.45;;
47353;SDS011;50657;48.830;2.282;2022-12-10T02:22:02;4.13;;;3.55;;
47353;SDS011;50657;48.830;2.282;2022-12-10T02:24:32;7.03;;;4.53;;
47353;SDS011;50657;48.830;2.282;2022-12-10T02:27:03;4.00;;;3.45;;
47353;SDS011;50657;48.830;2.282;2022-12-10T02:29:36;5.28;;;3.72;;
47353;SDS011;50657;48.830;2.282;2022-12-10T02:32:05;6.75;;;4.75;;
47353;SDS011;50657;48.830;2.282;2022-12-10T02:34:36;4.90;;;4.50;;
47353;SDS011;50657;48.830;2.282;2022-12-10T02:37:08;6.50;;;4.53;;
47353;SDS011;50657;48.830;2.282;2022-12-10T02:39:41;4.18;;;3.83;;
47353;SDS011;50657;48.830;2.282;2022-12-10T02:42:12;6.22;;;4.53;;
47353;SDS011;50657;48.830;2.282;2022-12-10T02:44:43;5.03;;;4.07;;
47353;SDS011;50657;48.830;2.282;2022-12-10T02:47:16;7.18;;;4.35;;
47353;SDS011;50657;48.830;2.282;2022-12-10T02:49:46;3.97;;;3.58;;
47353;SDS011;50657;48.830;2.282;2022-12-10T02:52:17;4.57;;;4.15;;
47353;SDS011;50657;48.830;2.282;2022-12-10T02:54:49;6.00;;;3.90;;
47353;SDS011;50657;48.830;2.282;2022-12-10T02:57:23;3.35;;;3.05;;
47353;SDS011;50657;48.830;2.282;2022-12-10T03:00:10;5.80;;;4.50;;
47353;SDS011;50657;48.830;2.282;2022-12-10T03:02:53;6.35;;;5.22;;
47353;SDS011;50657;48.830;2.282;2022-12-10T03:05:33;7.15;;;4.20;;
47353;SDS011;50657;48.830;2.282;2022-12-10T03:08:07;5.00;;;4.03;;
47353;SDS011;50657;48.830;2.282;2022-12-10T03:10:41;6.25;;;4.55;;
47353;SDS011;50657;48.830;2.282;2022-12-10T03:13:14;6.80;;;4.80;;
47353;SDS011;50657;48.830;2.282;2022-12-10T03:15:45;5.43;;;4.93;;
47353;SDS011;50657;48.830;2.282;2022-12-10T03:18:14;5.72;;;4.43;;
47353;SDS011;50657;48.830;2.282;2022-12-10T03:20:44;5.22;;;4.72;;
47353;SDS011;50657;48.830;2.282;2022-12-10T03:23:15;4.25;;;3.85;;
47353;SDS011;50657;48.830;2.282;2022-12-10T03:25:45;4.35;;;3.90;;
47353;SDS011;50657;48.830;2.282;2022-12-10T03:28:14;4.50;;;4.10;;
47353;SDS011;50657;48.830;2.282;2022-12-10T03:30:42;4.25;;;3.85;;
47353;SDS011;50657;48.830;2.282;2022-12-10T03:33:12;5.00;;;4.32;;
47353;SDS011;50657;48.830;2.282;2022-12-10T03:35:40;4.57;;;4.18;;
47353;SDS011;50657;48.830;2.282;2022-12-10T03:38:08;5.15;;;4.35;;
47353;SDS011;50657;48.830;2.282;2022-12-10T03:40:36;5.28;;;4.78;;
47353;SDS011;50657;48.830;2.282;2022-12-10T03:43:03;4.00;;;3.65;;
47353;SDS011;50657;48.830;2.282;2022-12-10T03:45:30;5.32;;;4.00;;
47353;SDS011;50657;48.830;2.282;2022-12-10T03:47:58;4.18;;;3.80;;
47353;SDS011;50657;48.830;2.282;2022-12-10T03:50:25;3.80;;;3.35;;
47353;SDS011;50657;48.830;2.282;2022-12-10T03:52:52;4.03;;;3.03;;
47353;SDS011;50657;48.830;2.282;2022-12-10T03:55:19;3.17;;;2.85;;
47353;SDS011;50657;48.830;2.282;2022-12-10T03:57:47;4.10;;;3.67;;
47353;SDS011;50657;48.830;2.282;2022-12-10T04:00:14;3.22;;;2.92;;
47353;SDS011;50657;48.830;2.282;2022-12-10T04:02:41;3.72;;;2.72;;
47353;SDS011;50657;48.830;2.282;2022-12-10T04:05:10;6.40;;;3.75;;
47353;SDS011;50657;48.830;2.282;2022-12-10T04:07:37;3.50;;;3.22;;
47353;SDS011;50657;48.830;2.282;2022-12-10T04:10:04;4.72;;;3.20;;
47353;SDS011;50657;48.830;2.282;2022-12-10T04:12:32;4.18;;;3.65;;
47353;SDS011;50657;48.830;2.282;2022-12-10T04:14:59;3.92;;;3.63;;
47353;SDS011;50657;48.830;2.282;2022-12-10T04:17:43;3.22;;;2.63;;
47353;SDS011;50657;48.830;2.282;2022-12-10T04:20:12;4.40;;;3.28;;
47353;SDS011;50657;48.830;2.282;2022-12-10T04:22:52;3.83;;;3.45;;
47353;SDS011;50657;48.830;2.282;2022-12-10T04:25:37;4.28;;;3.33;;
47353;SDS011;50657;48.830;2.282;2022-12-10T04:28:21;3.28;;;2.95;;
47353;SDS011;50657;48.830;2.282;2022-12-10T04:30:48;3.08;;;2.88;;
47353;SDS011;50657;48.830;2.282;2022-12-10T04:33:15;3.10;;;2.90;;
47353;SDS011;50657;48.830;2.282;2022-12-10T04:35:43;3.75;;;3.17;;
47353;SDS011;50657;48.830;2.282;2022-12-10T04:38:11;2.95;;;2.80;;
47353;SDS011;50657;48.830;2.282;2022-12-10T04:40:38;3.13;;;2.67;;
47353;SDS011;50657;48.830;2.282;2022-12-10T04:43:05;4.80;;;2.78;;
47353;SDS011;50657;48.830;2.282;2022-12-10T04:45:33;2.05;;;1.95;;
47353;SDS011;50657;48.830;2.282;2022-12-10T04:48:01;2.67;;;2.47;;
47353;SDS011;50657;48.830;2.282;2022-12-10T04:50:28;3.95;;;3.25;;
47353;SDS011;50657;48.830;2.282;2022-12-10T04:52:57;3.35;;;2.58;;
47353;SDS011;50657;48.830;2.282;2022-12-10T04:55:24;2.38;;;2.17;;
47353;SDS011;50657;48.830;2.282;2022-12-10T04:57:51;3.17;;;2.53;;
47353;SDS011;50657;48.830;2.282;2022-12-10T05:00:18;2.97;;;2.72;;
47353;SDS011;50657;48.830;2.282;2022-12-10T05:02:47;4.20;;;2.75;;
47353;SDS011;50657;48.830;2.282;2022-12-10T05:05:15;4.50;;;2.92;;
47353;SDS011;50657;48.830;2.282;2022-12-10T05:07:42;3.72;;;2.65;;
47353;SDS011;50657;48.830;2.282;2022-12-10T05:10:10;2.17;;;2.08;;
47353;SDS011;50657;48.830;2.282;2022-12-10T05:12:37;2.42;;;2.22;;
47353;SDS011;50657;48.830;2.282;2022-12-10T05:15:05;2.17;;;2.08;;
47353;SDS011;50657;48.830;2.282;2022-12-10T05:17:33;2.88;;;2.67;;
47353;SDS011;50657;48.830;2.282;2022-12-10T05:20:00;3.13;;;2.78;;
47353;SDS011;50657;48.830;2.282;2022-12-10T05:22:28;2.67;;;2.38;;
47353;SDS011;50657;48.830;2.282;2022-12-10T05:25:14;2.28;;;2.08;;
47353;SDS011;50657;48.830;2.282;2022-12-10T05:27:41;2.50;;;1.98;;
47353;SDS011;50657;48.830;2.282;2022-12-10T05:30:08;3.22;;;2.58;;
47353;SDS011;50657;48.830;2.282;2022-12-10T05:32:36;2.22;;;2.03;;
47353;SDS011;50657;48.830;2.282;2022-12-10T05:35:04;2.75;;;2.17;;
47353;SDS011;50657;48.830;2.282;2022-12-10T05:37:32;2.83;;;1.73;;
47353;SDS011;50657;48.830;2.282;2022-12-10T05:39:59;2.33;;;2.03;;
47353;SDS011;50657;48.830;2.282;2022-12-10T05:42:28;3.05;;;2.10;;
47353;SDS011;50657;48.830;2.282;2022-12-10T05:44:55;2.28;;;2.13;;
47353;SDS011;50657;48.830;2.282;2022-12-10T05:47:22;2.13;;;1.77;;
47353;SDS011;50657;48.830;2.282;2022-12-10T05:49:49;4.93;;;2.17;;
47353;SDS011;50657;48.830;2.282;2022-12-10T05:52:16;2.38;;;2.17;;
47353;SDS011;50657;48.830;2.282;2022-12-10T05:54:43;2.20;;;1.42;;
47353;SDS011;50657;48.830;2.282;2022-12-10T05:57:11;2.63;;;2.42;;
47353;SDS011;50657;48.830;2.282;2022-12-10T05:59:39;2.13;;;1.92;;
47353;SDS011;50657;48.830;2.282;2022-12-10T06:02:06;2.65;;;2.30;;
47353;SDS011;50657;48.830;2.282;2022-12-10T06:04:33;2.30;;;1.77;;
47353;SDS011;50657;48.830;2.282;2022-12-10T06:07:00;1.98;;;1.88;;
47353;SDS011;50657;48.830;2.282;2022-12-10T06:09:27;1.98;;;1.88;;
47353;SDS011;50657;48.830;2.282;2022-12-10T06:11:54;1.60;;;1.42;;
47353;SDS011;50657;48.830;2.282;2022-12-10T06:14:21;2.15;;;1.95;;
47353;SDS011;50657;48.830;2.282;2022-12-10T06:16:50;2.05;;;1.85;;
47353;SDS011;50657;48.830;2.282;2022-12-10T06:19:17;3.17;;;1.63;;
47353;SDS011;50657;48.830;2.282;2022-12-10T06:21:44;1.95;;;1.60;;
47353;SDS011;50657;48.830;2.282;2022-12-10T06:24:11;2.85;;;1.58;;
47353;SDS011;50657;48.830;2.282;2022-12-10T06:26:38;1.80;;;1.60;;
47353;SDS011;50657;48.830;2.282;2022-12-10T06:29:05;4.28;;;1.80;;
47353;SDS011;50657;48.830;2.282;2022-12-10T06:31:32;1.85;;;1.75;;
47353;SDS011;50657;48.830;2.282;2022-12-10T06:34:01;2.40;;;1.92;;
47353;SDS011;50657;48.830;2.282;2022-12-10T06:36:28;1.67;;;1.58;;
47353;SDS011;50657;48.830;2.282;2022-12-10T06:38:55;1.42;;;1.35;;
47353;SDS011;50657;48.830;2.282;2022-12-10T06:41:22;2.00;;;1.90;;
47353;SDS011;50657;48.830;2.282;2022-12-10T06:43:49;1.88;;;1.40;;
47353;SDS011;50657;48.830;2.282;2022-12-10T06:46:17;1.67;;;1.55;;
47353;SDS011;50657;48.830;2.282;2022-12-10T06:48:45;2.08;;;1.90;;
47353;SDS011;50657;48.830;2.282;2022-12-10T06:51:14;2.03;;;1.77;;
47353;SDS011;50657;48.830;2.282;2022-12-10T06:53:42;1.13;;;0.93;;
47353;SDS011;50657;48.830;2.282;2022-12-10T06:56:11;2.78;;;1.42;;
47353;SDS011;50657;48.830;2.282;2022-12-10T06:58:39;1.33;;;1.23;;
47353;SDS011;50657;48.830;2.282;2022-12-10T07:01:08;1.50;;;1.40;;
47353;SDS011;50657;48.830;2.282;2022-12-10T07:03:36;1.60;;;1.50;;
47353;SDS011;50657;48.830;2.282;2022-12-10T07:06:04;1.25;;;1.25;;
47353;SDS011;50657;48.830;2.282;2022-12-10T07:08:35;1.38;;;0.90;;
47353;SDS011;50657;48.830;2.282;2022-12-10T07:11:03;1.60;;;1.00;;
47353;SDS011;50657;48.830;2.282;2022-12-10T07:13:31;2.55;;;1.35;;
47353;SDS011;50657;48.830;2.282;2022-12-10T07:15:58;1.83;;;1.73;;
47353;SDS011;50657;48.830;2.282;2022-12-10T07:18:26;1.27;;;1.20;;
47353;SDS011;50657;48.830;2.282;2022-12-10T07:20:53;1.13;;;0.90;;
47353;SDS011;50657;48.830;2.282;2022-12-10T07:23:21;1.08;;;0.98;;
47353;SDS011;50657;48.830;2.282;2022-12-10T07:25:49;1.33;;;1.27;;
47353;SDS011;50657;48.830;2.282;2022-12-10T07:28:16;2.25;;;1.27;;
47353;SDS011;50657;48.830;2.282;2022-12-10T07:30:43;2.10;;;1.65;;
47353;SDS011;50657;48.830;2.282;2022-12-10T07:33:11;1.63;;;1.52;;
47353;SDS011;50657;48.830;2.282;2022-12-10T07:35:38;4.20;;;2.42;;
47353;SDS011;50657;48.830;2.282;2022-12-10T07:38:05;2.58;;;1.85;;
47353;SDS011;50657;48.830;2.282;2022-12-10T07:40:32;3.72;;;2.05;;
47353;SDS011;50657;48.830;2.282;2022-12-10T07:43:01;2.15;;;1.52;;
47353;SDS011;50657;48.830;2.282;2022-12-10T07:45:28;4.38;;;3.20;;
47353;SDS011;50657;48.830;2.282;2022-12-10T07:47:55;2.13;;;1.50;;
47353;SDS011;50657;48.830;2.282;2022-12-10T07:50:22;2.72;;;1.88;;
47353;SDS011;50657;48.830;2.282;2022-12-10T07:52:49;3.28;;;1.95;;
47353;SDS011;50657;48.830;2.282;2022-12-10T07:55:16;2.95;;;1.65;;
47353;SDS011;50657;48.830;2.282;2022-12-10T07:57:43;1.55;;;1.45;;
47353;SDS011;50657;48.830;2.282;2022-12-10T08:00:12;1.73;;;1.33;;
47353;SDS011;50657;48.830;2.282;2022-12-10T08:02:40;2.03;;;1.50;;
47353;SDS011;50657;48.830;2.282;2022-12-10T08:05:07;1.83;;;1.25;;
47353;SDS011;50657;48.830;2.282;2022-12-10T08:07:35;3.00;;;1.10;;
47353;SDS011;50657;48.830;2.282;2022-12-10T08:10:02;1.20;;;1.10;;
47353;SDS011;50657;48.830;2.282;2022-12-10T08:12:29;1.88;;;1.77;;
47353;SDS011;50657;48.830;2.282;2022-12-10T08:14:56;1.17;;;1.10;;
47353;SDS011;50657;48.830;2.282;2022-12-10T08:17:25;4.00;;;1.75;;
47353;SDS011;50657;48.830;2.282;2022-12-10T08:19:52;1.63;;;1.23;;
47353;SDS011;50657;48.830;2.282;2022-12-10T08:22:20;3.90;;;1.88;;
47353;SDS011;50657;48.830;2.282;2022-12-10T08:24:47;3.83;;;0.90;;
47353;SDS011;50657;48.830;2.282;2022-12-10T08:27:14;2.30;;;1.52;;
47353;SDS011;50657;48.830;2.282;2022-12-10T08:29:41;2.03;;;0.60;;
47353;SDS011;50657;48.830;2.282;2022-12-10T08:32:09;2.15;;;1.48;;
47353;SDS011;50657;48.830;2.282;2022-12-10T08:34:37;0.60;;;0.47;;
47353;SDS011;50657;48.830;2.282;2022-12-10T08:37:04;2.85;;;0.60;;
47353;SDS011;50657;48.830;2.282;2022-12-10T08:39:31;1.98;;;0.63;;
47353;SDS011;50657;48.830;2.282;2022-12-10T08:41:58;0.60;;;0.60;;
47353;SDS011;50657;48.830;2.282;2022-12-10T08:44:25;0.32;;;0.30;;
47353;SDS011;50657;48.830;2.282;2022-12-10T08:46:53;1.08;;;0.52;;
47353;SDS011;50657;48.830;2.282;2022-12-10T08:49:20;0.43;;;0.30;;
47353;SDS011;50657;48.830;2.282;2022-12-10T08:51:48;1.40;;;0.30;;
47353;SDS011;50657;48.830;2.282;2022-12-10T08:54:15;0.70;;;0.55;;
47353;SDS011;50657;48.830;2.282;2022-12-10T08:56:42;0.98;;;0.22;;
47353;SDS011;50657;48.830;2.282;2022-12-10T08:59:09;1.67;;;0.50;;
47353;SDS011;50657;48.830;2.282;2022-12-10T09:01:36;0.80;;;0.80;;
47353;SDS011;50657;48.830;2.282;2022-12-10T09:04:04;1.75;;;0.40;;
47353;SDS011;50657;48.830;2.282;2022-12-10T09:06:31;0.30;;;0.30;;
47353;SDS011;50657;48.830;2.282;2022-12-10T09:08:59;0.30;;;0.20;;
47353;SDS011;50657;48.830;2.282;2022-12-10T09:11:27;0.60;;;0.60;;
47353;SDS011;50657;48.830;2.282;2022-12-10T09:13:57;2.20;;;0.68;;
47353;SDS011;50657;48.830;2.282;2022-12-10T09:16:27;0.73;;;0.40;;
47353;SDS011;50657;48.830;2.282;2022-12-10T09:18:55;0.28;;;0.20;;
47353;SDS011;50657;48.830;2.282;2022-12-10T09:21:22;1.52;;;0.50;;
47353;SDS011;50657;48.830;2.282;2022-12-10T09:23:50;3.45;;;1.17;;
47353;SDS011;50657;48.830;2.282;2022-12-10T09:26:19;4.10;;;0.82;;
47353;SDS011;50657;48.830;2.282;2022-12-10T09:28:46;1.17;;;1.05;;
47353;SDS011;50657;48.830;2.282;2022-12-10T09:31:14;0.60;;;0.45;;
47353;SDS011;50657;48.830;2.282;2022-12-10T09:33:44;2.58;;;0.82;;
47353;SDS011;50657;48.830;2.282;2022-12-10T09:36:12;1.60;;;1.02;;
47353;SDS011;50657;48.830;2.282;2022-12-10T09:38:40;5.22;;;1.08;;
47353;SDS011;50657;48.830;2.282;2022-12-10T09:41:14;0.52;;;0.47;;
47353;SDS011;50657;48.830;2.282;2022-12-10T09:44:03;0.50;;;0.47;;
47353;SDS011;50657;48.830;2.282;2022-12-10T09:46:39;0.65;;;0.60;;
47353;SDS011;50657;48.830;2.282;2022-12-10T09:49:11;1.50;;;0.85;;
47353;SDS011;50657;48.830;2.282;2022-12-10T09:51:46;1.88;;;0.77;;
47353;SDS011;50657;48.830;2.282;2022-12-10T09:54:15;1.92;;;1.70;;
47353;SDS011;50657;48.830;2.282;2022-12-10T09:56:49;1.02;;;1.02;;
47353;SDS011;50657;48.830;2.282;2022-12-10T09:59:19;1.80;;;1.55;;
47353;SDS011;50657;48.830;2.282;2022-12-10T10:01:50;2.22;;;2.03;;
47353;SDS011;50657;48.830;2.282;2022-12-10T10:04:28;1.70;;;1.60;;
47353;SDS011;50657;48.830;2.282;2022-12-10T10:06:55;4.07;;;1.98;;
47353;SDS011;50657;48.830;2.282;2022-12-10T10:09:23;2.13;;;1.85;;
47353;SDS011;50657;48.830;2.282;2022-12-10T10:11:52;3.50;;;1.85;;
47353;SDS011;50657;48.830;2.282;2022-12-10T10:14:22;10.57;;;1.60;;
47353;SDS011;50657;48.830;2.282;2022-12-10T10:16:53;1.35;;;0.82;;
47353;SDS011;50657;48.830;2.282;2022-12-10T10:19:26;1.67;;;1.58;;
47353;SDS011;50657;48.830;2.282;2022-12-10T10:21:55;0.95;;;0.75;;
47353;SDS011;50657;48.830;2.282;2022-12-10T10:24:23;2.13;;;1.33;;
47353;SDS011;50657;48.830;2.282;2022-12-10T10:26:56;2.67;;;1.17;;
47353;SDS011;50657;48.830;2.282;2022-12-10T10:29:24;1.73;;;1.25;;
47353;SDS011;50657;48.830;2.282;2022-12-10T10:32:11;1.38;;;1.27;;
47353;SDS011;50657;48.830;2.282;2022-12-10T10:34:41;1.38;;;1.33;;
47353;SDS011;50657;48.830;2.282;2022-12-10T10:37:13;1.10;;;1.02;;
47353;SDS011;50657;48.830;2.282;2022-12-10T10:42:21;2.03;;;1.15;;
47353;SDS011;50657;48.830;2.282;2022-12-10T10:44:54;3.40;;;2.47;;
47353;SDS011;50657;48.830;2.282;2022-12-10T10:47:25;2.40;;;1.92;;
47353;SDS011;50657;48.830;2.282;2022-12-10T10:49:54;1.63;;;1.52;;
47353;SDS011;50657;48.830;2.282;2022-12-10T10:52:21;0.95;;;0.73;;
47353;SDS011;50657;48.830;2.282;2022-12-10T10:54:49;3.25;;;1.88;;
47353;SDS011;50657;48.830;2.282;2022-12-10T10:57:18;2.65;;;1.52;;
47353;SDS011;50657;48.830;2.282;2022-12-10T10:59:50;1.20;;;1.13;;
47353;SDS011;50657;48.830;2.282;2022-12-10T11:02:20;2.53;;;2.28;;
47353;SDS011;50657;48.830;2.282;2022-12-10T11:04:53;1.58;;;1.45;;
47353;SDS011;50657;48.830;2.282;2022-12-10T11:07:24;3.85;;;1.45;;
47353;SDS011;50657;48.830;2.282;2022-12-10T11:12:29;1.67;;;1.58;;
47353;SDS011;50657;48.830;2.282;2022-12-10T11:15:02;3.78;;;1.83;;
47353;SDS011;50657;48.830;2.282;2022-12-10T11:17:42;1.27;;;1.10;;
47353;SDS011;50657;48.830;2.282;2022-12-10T11:20:16;1.27;;;0.95;;
47353;SDS011;50657;48.830;2.282;2022-12-10T11:22:48;2.05;;;1.10;;
47353;SDS011;50657;48.830;2.282;2022-12-10T11:25:17;2.60;;;1.55;;
47353;SDS011;50657;48.830;2.282;2022-12-10T11:27:48;4.13;;;2.03;;
47353;SDS011;50657;48.830;2.282;2022-12-10T11:30:23;3.38;;;2.05;;
47353;SDS011;50657;48.830;2.282;2022-12-10T11:32:56;6.35;;;2.83;;
47353;SDS011;50657;48.830;2.282;2022-12-10T11:35:35;3.33;;;1.63;;
47353;SDS011;50657;48.830;2.282;2022-12-10T11:38:15;3.75;;;1.60;;
47353;SDS011;50657;48.830;2.282;2022-12-10T11:40:48;9.75;;;2.08;;
47353;SDS011;50657;48.830;2.282;2022-12-10T11:43:29;1.98;;;1.13;;
47353;SDS011;50657;48.830;2.282;2022-12-10T11:46:25;3.78;;;1.75;;
47353;SDS011;50657;48.830;2.282;2022-12-10T11:49:05;5.95;;;2.05;;
47353;SDS011;50657;48.830;2.282;2022-12-10T11:51:43;13.65;;;2.75;;
47353;SDS011;50657;48.830;2.282;2022-12-10T11:54:20;4.40;;;1.73;;
47353;SDS011;50657;48.830;2.282;2022-12-10T11:56:59;3.38;;;1.35;;
47353;SDS011;50657;48.830;2.282;2022-12-10T11:59:34;1.30;;;1.00;;
47353;SDS011;50657;48.830;2.282;2022-12-10T12:02:19;5.35;;;1.50;;
47353;SDS011;50657;48.830;2.282;2022-12-10T12:05:03;3.83;;;1.55;;
47353;SDS011;50657;48.830;2.282;2022-12-10T12:07:40;3.15;;;1.17;;
47353;SDS011;50657;48.830;2.282;2022-12-10T12:13:12;3.22;;;1.23;;
47353;SDS011;50657;48.830;2.282;2022-12-10T12:15:43;1.92;;;0.98;;
47353;SDS011;50657;48.830;2.282;2022-12-10T12:18:18;1.70;;;1.27;;
47353;SDS011;50657;48.830;2.282;2022-12-10T12:20:49;2.92;;;1.27;;
47353;SDS011;50657;48.830;2.282;2022-12-10T12:23:22;3.70;;;1.17;;
47353;SDS011;50657;48.830;2.282;2022-12-10T12:25:54;3.33;;;1.10;;
47353;SDS011;50657;48.830;2.282;2022-12-10T12:28:25;2.05;;;1.52;;
47353;SDS011;50657;48.830;2.282;2022-12-10T12:30:58;3.88;;;1.50;;
47353;SDS011;50657;48.830;2.282;2022-12-10T12:33:32;2.22;;;0.85;;
47353;SDS011;50657;48.830;2.282;2022-12-10T12:36:08;1.17;;;0.90;;
47353;SDS011;50657;48.830;2.282;2022-12-10T12:38:41;2.25;;;0.82;;
47353;SDS011;50657;48.830;2.282;2022-12-10T12:41:17;1.95;;;0.70;;
47353;SDS011;50657;48.830;2.282;2022-12-10T12:43:55;3.20;;;1.10;;
47353;SDS011;50657;48.830;2.282;2022-12-10T12:46:29;2.05;;;0.57;;
47353;SDS011;50657;48.830;2.282;2022-12-10T12:49:04;1.60;;;1.20;;
47353;SDS011;50657;48.830;2.282;2022-12-10T12:51:41;1.50;;;1.10;;
47353;SDS011;50657;48.830;2.282;2022-12-10T12:54:14;0.68;;;0.68;;
47353;SDS011;50657;48.830;2.282;2022-12-10T12:56:50;2.15;;;0.80;;
47353;SDS011;50657;48.830;2.282;2022-12-10T12:59:29;1.90;;;1.55;;
47353;SDS011;50657;48.830;2.282;2022-12-10T13:02:08;1.52;;;0.60;;
47353;SDS011;50657;48.830;2.282;2022-12-10T13:04:46;2.35;;;1.15;;
47353;SDS011;50657;48.830;2.282;2022-12-10T13:07:27;5.82;;;1.10;;
47353;SDS011;50657;48.830;2.282;2022-12-10T13:10:09;0.80;;;0.70;;
47353;SDS011;50657;48.830;2.282;2022-12-10T13:13:05;1.70;;;0.55;;
47353;SDS011;50657;48.830;2.282;2022-12-10T13:15:42;2.15;;;1.20;;
47353;SDS011;50657;48.830;2.282;2022-12-10T13:21:25;0.80;;;0.80;;
47353;SDS011;50657;48.830;2.282;2022-12-10T13:24:04;1.38;;;1.15;;
47353;SDS011;50657;48.830;2.282;2022-12-10T13:26:33;3.25;;;1.60;;
47353;SDS011;50657;48.830;2.282;2022-12-10T13:29:11;1.92;;;1.83;;
47353;SDS011;50657;48.830;2.282;2022-12-10T13:31:54;1.33;;;1.23;;
47353;SDS011;50657;48.830;2.282;2022-12-10T13:34:25;3.22;;;2.22;;
47353;SDS011;50657;48.830;2.282;2022-12-10T13:37:06;1.70;;;1.30;;
47353;SDS011;50657;48.830;2.282;2022-12-10T13:40:00;1.42;;;1.33;;
47353;SDS011;50657;48.830;2.282;2022-12-10T13:42:39;2.15;;;1.25;;
47353;SDS011;50657;48.830;2.282;2022-12-10T13:45:31;2.90;;;1.13;;
47353;SDS011;50657;48.830;2.282;2022-12-10T13:48:17;2.20;;;1.10;;
47353;SDS011;50657;48.830;2.282;2022-12-10T13:51:04;0.93;;;0.82;;
47353;SDS011;50657;48.830;2.282;2022-12-10T13:53:49;0.95;;;0.75;;
47353;SDS011;50657;48.830;2.282;2022-12-10T13:56:25;1.13;;;0.73;;
47353;SDS011;50657;48.830;2.282;2022-12-10T13:58:59;1.08;;;0.40;;
47353;SDS011;50657;48.830;2.282;2022-12-10T14:01:38;0.70;;;0.70;;
47353;SDS011;50657;48.830;2.282;2022-12-10T14:04:15;3.35;;;0.52;;
47353;SDS011;50657;48.830;2.282;2022-12-10T14:06:58;1.20;;;0.70;;
47353;SDS011;50657;48.830;2.282;2022-12-10T14:09:27;1.90;;;0.90;;
47353;SDS011;50657;48.830;2.282;2022-12-10T14:12:01;3.35;;;0.70;;
47353;SDS011;50657;48.830;2.282;2022-12-10T14:14:32;0.75;;;0.57;;
47353;SDS011;50657;48.830;2.282;2022-12-10T14:17:02;0.55;;;0.55;;
47353;SDS011;50657;48.830;2.282;2022-12-10T14:19:32;1.42;;;0.75;;
47353;SDS011;50657;48.830;2.282;2022-12-10T14:22:03;2.45;;;2.03;;
47353;SDS011;50657;48.830;2.282;2022-12-10T14:24:34;4.25;;;0.80;;
47353;SDS011;50657;48.830;2.282;2022-12-10T14:27:05;2.72;;;1.42;;
47353;SDS011;50657;48.830;2.282;2022-12-10T14:32:10;1.80;;;1.17;;
47353;SDS011;50657;48.830;2.282;2022-12-10T14:34:40;2.58;;;2.20;;
47353;SDS011;50657;48.830;2.282;2022-12-10T14:37:08;1.90;;;1.60;;
47353;SDS011;50657;48.830;2.282;2022-12-10T14:39:41;5.78;;;1.83;;
47353;SDS011;50657;48.830;2.282;2022-12-10T14:42:09;2.63;;;1.88;;
47353;SDS011;50657;48.830;2.282;2022-12-10T14:44:41;2.67;;;1.83;;
47353;SDS011;50657;48.830;2.282;2022-12-10T14:47:12;2.63;;;1.83;;
47353;SDS011;50657;48.830;2.282;2022-12-10T14:49:41;1.98;;;1.85;;
47353;SDS011;50657;48.830;2.282;2022-12-10T14:52:12;4.65;;;2.33;;
47353;SDS011;50657;48.830;2.282;2022-12-10T14:54:42;2.00;;;1.90;;
47353;SDS011;50657;48.830;2.282;2022-12-10T14:57:13;1.95;;;1.42;;
47353;SDS011;50657;48.830;2.282;2022-12-10T14:59:48;1.25;;;1.08;;
47353;SDS011;50657;48.830;2.282;2022-12-10T15:02:27;1.90;;;1.35;;
47353;SDS011;50657;48.830;2.282;2022-12-10T15:04:56;2.90;;;2.22;;
47353;SDS011;50657;48.830;2.282;2022-12-10T15:07:25;4.22;;;1.13;;
47353;SDS011;50657;48.830;2.282;2022-12-10T15:10:01;2.85;;;2.05;;
47353;SDS011;50657;48.830;2.282;2022-12-10T15:12:31;2.15;;;1.80;;
47353;SDS011;50657;48.830;2.282;2022-12-10T15:15:09;2.40;;;1.33;;
47353;SDS011;50657;48.830;2.282;2022-12-10T15:17:40;1.63;;;1.23;;
47353;SDS011;50657;48.830;2.282;2022-12-10T15:20:18;2.38;;;1.85;;
47353;SDS011;50657;48.830;2.282;2022-12-10T15:22:50;0.80;;;0.77;;
47353;SDS011;50657;48.830;2.282;2022-12-10T15:25:26;2.95;;;1.73;;